sensor_id;sensor_type;location;lat;lon;timestamp;P1;durP1;ratioP1;P2;durP2;ratioP2
54853;SDS011;40747;49.480;8.658;2022-10-31T00:01:23;4.70;;;2.20;;
54853;SDS011;40747;49.480;8.658;2022-10-31T00:03:53;11.88;;;2.70;;
54853;SDS011;40747;49.480;8.658;2022-10-31T00:06:19;6.18;;;2.22;;
54853;SDS011;40747;49.480;8.658;2022-10-31T00:08:55;3.45;;;1.33;;
54853;SDS011;40747;49.480;8.658;2022-10-31T00:11:24;5.38;;;1.77;;
54853;SDS011;40747;49.480;8.658;2022-10-31T00:13:50;4.63;;;1.80;;
54853;SDS011;40747;49.480;8.658;2022-10-31T00:16:17;5.28;;;1.88;;
54853;SDS011;40747;49.480;8.658;2022-10-31T00:18:44;6.32;;;2.55;;
54853;SDS011;40747;49.480;8.658;2022-10-31T00:21:13;3.00;;;1.83;;
54853;SDS011;40747;49.480;8.658;2022-10-31T00:23:39;7.40;;;2.28;;
54853;SDS011;40747;49.480;8.658;2022-10-31T00:26:04;7.97;;;2.28;;
54853;SDS011;40747;49.480;8.658;2022-10-31T00:28:31;5.97;;;2.08;;
54853;SDS011;40747;49.480;8.658;2022-10-31T00:31:00;5.90;;;2.30;;
54853;SDS011;40747;49.480;8.658;2022-10-31T00:35:57;3.45;;;1.88;;
54853;SDS011;40747;49.480;8.658;2022-10-31T00:38:22;4.15;;;2.05;;
54853;SDS011;40747;49.480;8.658;2022-10-31T00:40:48;6.75;;;2.10;;
54853;SDS011;40747;49.480;8.658;2022-10-31T00:43:13;5.60;;;2.33;;
54853;SDS011;40747;49.480;8.658;2022-10-31T00:45:38;3.25;;;1.98;;
54853;SDS011;40747;49.480;8.658;2022-10-31T00:48:04;5.03;;;1.95;;
54853;SDS011;40747;49.480;8.658;2022-10-31T00:50:29;7.18;;;2.63;;
54853;SDS011;40747;49.480;8.658;2022-10-31T00:52:55;4.97;;;2.47;;
54853;SDS011;40747;49.480;8.658;2022-10-31T00:55:21;7.07;;;2.47;;
54853;SDS011;40747;49.480;8.658;2022-10-31T00:57:47;9.75;;;3.05;;
54853;SDS011;40747;49.480;8.658;2022-10-31T01:00:12;5.72;;;2.47;;
54853;SDS011;40747;49.480;8.658;2022-10-31T01:02:38;4.75;;;2.63;;
54853;SDS011;40747;49.480;8.658;2022-10-31T01:05:04;5.45;;;2.35;;
54853;SDS011;40747;49.480;8.658;2022-10-31T01:07:29;5.82;;;2.60;;
54853;SDS011;40747;49.480;8.658;2022-10-31T01:09:54;6.20;;;2.85;;
54853;SDS011;40747;49.480;8.658;2022-10-31T01:12:20;6.30;;;2.75;;
54853;SDS011;40747;49.480;8.658;2022-10-31T01:14:45;6.57;;;2.97;;
54853;SDS011;40747;49.480;8.658;2022-10-31T01:17:11;5.55;;;2.65;;
54853;SDS011;40747;49.480;8.658;2022-10-31T01:19:37;10.98;;;2.78;;
54853;SDS011;40747;49.480;8.658;2022-10-31T01:22:02;5.72;;;2.72;;
54853;SDS011;40747;49.480;8.658;2022-10-31T01:24:27;10.20;;;2.92;;
54853;SDS011;40747;49.480;8.658;2022-10-31T01:26:52;6.13;;;2.67;;
54853;SDS011;40747;49.480;8.658;2022-10-31T01:29:18;3.28;;;2.17;;
54853;SDS011;40747;49.480;8.658;2022-10-31T01:31:43;6.45;;;3.05;;
54853;SDS011;40747;49.480;8.658;2022-10-31T01:34:10;8.00;;;2.63;;
54853;SDS011;40747;49.480;8.658;2022-10-31T01:36:39;5.97;;;2.53;;
54853;SDS011;40747;49.480;8.658;2022-10-31T01:39:06;4.68;;;2.50;;
54853;SDS011;40747;49.480;8.658;2022-10-31T01:41:34;4.50;;;2.20;;
54853;SDS011;40747;49.480;8.658;2022-10-31T01:44:02;4.38;;;2.47;;
54853;SDS011;40747;49.480;8.658;2022-10-31T01:47:04;4.20;;;2.05;;
54853;SDS011;40747;49.480;8.658;2022-10-31T01:49:37;6.72;;;2.92;;
54853;SDS011;40747;49.480;8.658;2022-10-31T01:52:08;5.35;;;2.30;;
54853;SDS011;40747;49.480;8.658;2022-10-31T01:54:43;6.73;;;2.57;;
54853;SDS011;40747;49.480;8.658;2022-10-31T01:57:22;4.57;;;2.53;;
54853;SDS011;40747;49.480;8.658;2022-10-31T01:59:49;6.00;;;2.83;;
54853;SDS011;40747;49.480;8.658;2022-10-31T02:02:18;4.22;;;2.50;;
54853;SDS011;40747;49.480;8.658;2022-10-31T02:04:44;7.18;;;2.00;;
54853;SDS011;40747;49.480;8.658;2022-10-31T02:07:12;7.15;;;2.08;;
54853;SDS011;40747;49.480;8.658;2022-10-31T02:09:41;7.63;;;2.13;;
54853;SDS011;40747;49.480;8.658;2022-10-31T02:12:08;3.70;;;2.10;;
54853;SDS011;40747;49.480;8.658;2022-10-31T02:14:35;6.80;;;2.00;;
54853;SDS011;40747;49.480;8.658;2022-10-31T02:17:02;4.00;;;1.75;;
54853;SDS011;40747;49.480;8.658;2022-10-31T02:19:52;3.00;;;1.75;;
54853;SDS011;40747;49.480;8.658;2022-10-31T02:30:11;2.40;;;1.77;;
54853;SDS011;40747;49.480;8.658;2022-10-31T02:33:08;3.15;;;1.98;;
54853;SDS011;40747;49.480;8.658;2022-10-31T02:38:34;3.65;;;1.80;;
54853;SDS011;40747;49.480;8.658;2022-10-31T02:43:57;4.22;;;1.83;;
54853;SDS011;40747;49.480;8.658;2022-10-31T02:46:33;5.88;;;2.47;;
54853;SDS011;40747;49.480;8.658;2022-10-31T02:49:05;5.63;;;2.13;;
54853;SDS011;40747;49.480;8.658;2022-10-31T02:51:37;3.33;;;1.92;;
54853;SDS011;40747;49.480;8.658;2022-10-31T02:54:04;4.50;;;1.92;;
54853;SDS011;40747;49.480;8.658;2022-10-31T02:56:29;10.30;;;2.17;;
54853;SDS011;40747;49.480;8.658;2022-10-31T02:58:56;7.97;;;1.83;;
54853;SDS011;40747;49.480;8.658;2022-10-31T03:01:39;4.32;;;2.33;;
54853;SDS011;40747;49.480;8.658;2022-10-31T03:12:30;4.78;;;1.50;;
54853;SDS011;40747;49.480;8.658;2022-10-31T03:20:02;4.95;;;1.85;;
54853;SDS011;40747;49.480;8.658;2022-10-31T03:22:31;4.88;;;1.90;;
54853;SDS011;40747;49.480;8.658;2022-10-31T03:24:58;3.90;;;1.55;;
54853;SDS011;40747;49.480;8.658;2022-10-31T03:27:26;3.08;;;1.88;;
54853;SDS011;40747;49.480;8.658;2022-10-31T03:29:56;7.35;;;2.40;;
54853;SDS011;40747;49.480;8.658;2022-10-31T03:32:33;4.35;;;2.40;;
54853;SDS011;40747;49.480;8.658;2022-10-31T03:35:02;9.93;;;1.90;;
54853;SDS011;40747;49.480;8.658;2022-10-31T03:37:30;6.85;;;2.20;;
54853;SDS011;40747;49.480;8.658;2022-10-31T03:39:58;10.00;;;2.15;;
54853;SDS011;40747;49.480;8.658;2022-10-31T03:42:27;6.47;;;2.17;;
54853;SDS011;40747;49.480;8.658;2022-10-31T03:44:57;8.15;;;2.22;;
54853;SDS011;40747;49.480;8.658;2022-10-31T03:47:27;9.43;;;2.63;;
54853;SDS011;40747;49.480;8.658;2022-10-31T03:49:53;6.32;;;1.95;;
54853;SDS011;40747;49.480;8.658;2022-10-31T03:52:22;5.13;;;2.00;;
54853;SDS011;40747;49.480;8.658;2022-10-31T03:54:54;4.50;;;2.58;;
54853;SDS011;40747;49.480;8.658;2022-10-31T03:57:45;7.95;;;2.67;;
54853;SDS011;40747;49.480;8.658;2022-10-31T04:00:33;6.03;;;2.28;;
54853;SDS011;40747;49.480;8.658;2022-10-31T04:03:07;8.73;;;2.38;;
54853;SDS011;40747;49.480;8.658;2022-10-31T04:05:37;5.40;;;2.40;;
54853;SDS011;40747;49.480;8.658;2022-10-31T04:08:05;5.20;;;2.38;;
54853;SDS011;40747;49.480;8.658;2022-10-31T04:10:37;3.87;;;2.30;;
54853;SDS011;40747;49.480;8.658;2022-10-31T04:13:07;4.00;;;2.28;;
54853;SDS011;40747;49.480;8.658;2022-10-31T04:15:36;3.50;;;2.05;;
54853;SDS011;40747;49.480;8.658;2022-10-31T04:18:03;8.43;;;2.60;;
54853;SDS011;40747;49.480;8.658;2022-10-31T04:20:34;4.68;;;2.30;;
54853;SDS011;40747;49.480;8.658;2022-10-31T04:23:01;7.70;;;2.55;;
54853;SDS011;40747;49.480;8.658;2022-10-31T04:25:26;6.13;;;1.95;;
54853;SDS011;40747;49.480;8.658;2022-10-31T04:27:52;6.90;;;2.70;;
54853;SDS011;40747;49.480;8.658;2022-10-31T04:30:17;4.30;;;2.60;;
54853;SDS011;40747;49.480;8.658;2022-10-31T04:32:42;3.38;;;2.13;;
54853;SDS011;40747;49.480;8.658;2022-10-31T04:35:08;4.95;;;2.53;;
54853;SDS011;40747;49.480;8.658;2022-10-31T04:37:33;3.38;;;2.08;;
54853;SDS011;40747;49.480;8.658;2022-10-31T04:39:58;6.13;;;2.72;;
54853;SDS011;40747;49.480;8.658;2022-10-31T04:42:24;5.78;;;2.58;;
54853;SDS011;40747;49.480;8.658;2022-10-31T04:44:49;6.40;;;2.45;;
54853;SDS011;40747;49.480;8.658;2022-10-31T04:47:14;9.80;;;2.50;;
54853;SDS011;40747;49.480;8.658;2022-10-31T04:49:40;3.80;;;2.15;;
54853;SDS011;40747;49.480;8.658;2022-10-31T04:52:05;5.22;;;2.00;;
54853;SDS011;40747;49.480;8.658;2022-10-31T04:54:30;4.57;;;2.47;;
54853;SDS011;40747;49.480;8.658;2022-10-31T04:56:56;4.18;;;2.50;;
54853;SDS011;40747;49.480;8.658;2022-10-31T04:59:21;4.15;;;2.50;;
54853;SDS011;40747;49.480;8.658;2022-10-31T05:01:46;3.28;;;2.45;;
54853;SDS011;40747;49.480;8.658;2022-10-31T05:04:11;4.40;;;2.30;;
54853;SDS011;40747;49.480;8.658;2022-10-31T05:06:37;4.50;;;2.53;;
54853;SDS011;40747;49.480;8.658;2022-10-31T05:09:02;4.85;;;2.28;;
54853;SDS011;40747;49.480;8.658;2022-10-31T05:11:27;3.15;;;2.22;;
54853;SDS011;40747;49.480;8.658;2022-10-31T05:13:53;4.85;;;2.75;;
54853;SDS011;40747;49.480;8.658;2022-10-31T05:16:18;7.22;;;2.13;;
54853;SDS011;40747;49.480;8.658;2022-10-31T05:18:43;7.65;;;3.47;;
54853;SDS011;40747;49.480;8.658;2022-10-31T05:21:08;6.57;;;2.05;;
54853;SDS011;40747;49.480;8.658;2022-10-31T05:23:34;8.90;;;2.60;;
54853;SDS011;40747;49.480;8.658;2022-10-31T05:25:59;3.97;;;2.20;;
54853;SDS011;40747;49.480;8.658;2022-10-31T05:28:25;3.85;;;2.50;;
54853;SDS011;40747;49.480;8.658;2022-10-31T05:30:50;6.00;;;2.40;;
54853;SDS011;40747;49.480;8.658;2022-10-31T05:33:15;4.03;;;2.38;;
54853;SDS011;40747;49.480;8.658;2022-10-31T05:35:40;5.20;;;2.00;;
54853;SDS011;40747;49.480;8.658;2022-10-31T05:38:06;3.75;;;1.70;;
54853;SDS011;40747;49.480;8.658;2022-10-31T05:40:31;4.47;;;2.35;;
54853;SDS011;40747;49.480;8.658;2022-10-31T05:42:56;5.05;;;1.88;;
54853;SDS011;40747;49.480;8.658;2022-10-31T05:45:23;3.88;;;1.50;;
54853;SDS011;40747;49.480;8.658;2022-10-31T05:47:50;6.47;;;1.95;;
54853;SDS011;40747;49.480;8.658;2022-10-31T05:50:19;4.40;;;1.80;;
54853;SDS011;40747;49.480;8.658;2022-10-31T05:52:45;5.85;;;2.35;;
54853;SDS011;40747;49.480;8.658;2022-10-31T05:55:11;4.22;;;2.33;;
54853;SDS011;40747;49.480;8.658;2022-10-31T05:57:36;8.85;;;2.78;;
54853;SDS011;40747;49.480;8.658;2022-10-31T06:00:01;6.50;;;1.95;;
54853;SDS011;40747;49.480;8.658;2022-10-31T06:02:28;9.65;;;2.67;;
54853;SDS011;40747;49.480;8.658;2022-10-31T06:04:57;4.22;;;2.08;;
54853;SDS011;40747;49.480;8.658;2022-10-31T06:07:22;6.53;;;1.70;;
54853;SDS011;40747;49.480;8.658;2022-10-31T06:09:47;6.13;;;1.98;;
54853;SDS011;40747;49.480;8.658;2022-10-31T06:12:12;5.07;;;1.95;;
54853;SDS011;40747;49.480;8.658;2022-10-31T06:14:38;6.20;;;2.45;;
54853;SDS011;40747;49.480;8.658;2022-10-31T06:17:03;9.05;;;2.50;;
54853;SDS011;40747;49.480;8.658;2022-10-31T06:19:28;3.20;;;1.90;;
54853;SDS011;40747;49.480;8.658;2022-10-31T06:21:53;5.03;;;2.15;;
54853;SDS011;40747;49.480;8.658;2022-10-31T06:24:19;5.38;;;2.28;;
54853;SDS011;40747;49.480;8.658;2022-10-31T06:26:44;3.60;;;1.98;;
54853;SDS011;40747;49.480;8.658;2022-10-31T06:29:10;10.48;;;2.33;;
54853;SDS011;40747;49.480;8.658;2022-10-31T06:31:35;12.23;;;2.80;;
54853;SDS011;40747;49.480;8.658;2022-10-31T06:34:00;4.05;;;2.72;;
54853;SDS011;40747;49.480;8.658;2022-10-31T06:36:25;5.38;;;2.50;;
54853;SDS011;40747;49.480;8.658;2022-10-31T06:38:51;7.93;;;2.80;;
54853;SDS011;40747;49.480;8.658;2022-10-31T06:41:16;7.28;;;2.63;;
54853;SDS011;40747;49.480;8.658;2022-10-31T06:43:41;4.35;;;2.38;;
54853;SDS011;40747;49.480;8.658;2022-10-31T06:46:06;8.07;;;2.45;;
54853;SDS011;40747;49.480;8.658;2022-10-31T06:48:32;3.40;;;2.42;;
54853;SDS011;40747;49.480;8.658;2022-10-31T06:50:58;8.55;;;2.63;;
54853;SDS011;40747;49.480;8.658;2022-10-31T06:53:24;6.28;;;2.47;;
54853;SDS011;40747;49.480;8.658;2022-10-31T06:55:50;4.97;;;2.53;;
54853;SDS011;40747;49.480;8.658;2022-10-31T06:58:15;6.47;;;2.97;;
54853;SDS011;40747;49.480;8.658;2022-10-31T07:00:41;8.43;;;2.65;;
54853;SDS011;40747;49.480;8.658;2022-10-31T07:03:08;4.88;;;2.83;;
54853;SDS011;40747;49.480;8.658;2022-10-31T07:05:35;6.63;;;2.78;;
54853;SDS011;40747;49.480;8.658;2022-10-31T07:08:02;7.70;;;2.63;;
54853;SDS011;40747;49.480;8.658;2022-10-31T07:10:31;11.98;;;2.65;;
54853;SDS011;40747;49.480;8.658;2022-10-31T07:12:59;6.40;;;2.97;;
54853;SDS011;40747;49.480;8.658;2022-10-31T07:15:28;5.03;;;2.70;;
54853;SDS011;40747;49.480;8.658;2022-10-31T07:18:01;5.80;;;2.75;;
54853;SDS011;40747;49.480;8.658;2022-10-31T07:20:28;3.88;;;2.55;;
54853;SDS011;40747;49.480;8.658;2022-10-31T07:22:54;6.03;;;2.85;;
54853;SDS011;40747;49.480;8.658;2022-10-31T07:25:20;5.13;;;2.67;;
54853;SDS011;40747;49.480;8.658;2022-10-31T07:27:45;6.10;;;2.53;;
54853;SDS011;40747;49.480;8.658;2022-10-31T07:30:11;7.07;;;2.47;;
54853;SDS011;40747;49.480;8.658;2022-10-31T07:32:41;7.03;;;3.72;;
54853;SDS011;40747;49.480;8.658;2022-10-31T07:35:09;12.25;;;3.60;;
54853;SDS011;40747;49.480;8.658;2022-10-31T07:37:36;3.50;;;2.75;;
54853;SDS011;40747;49.480;8.658;2022-10-31T07:40:02;4.97;;;2.83;;
54853;SDS011;40747;49.480;8.658;2022-10-31T07:42:29;5.47;;;2.90;;
54853;SDS011;40747;49.480;8.658;2022-10-31T07:44:54;10.77;;;3.33;;
54853;SDS011;40747;49.480;8.658;2022-10-31T07:47:20;5.13;;;2.72;;
54853;SDS011;40747;49.480;8.658;2022-10-31T07:49:45;7.30;;;3.28;;
54853;SDS011;40747;49.480;8.658;2022-10-31T07:52:10;5.63;;;2.70;;
54853;SDS011;40747;49.480;8.658;2022-10-31T07:54:35;6.35;;;3.28;;
54853;SDS011;40747;49.480;8.658;2022-10-31T07:57:01;5.85;;;2.85;;
54853;SDS011;40747;49.480;8.658;2022-10-31T07:59:26;5.65;;;3.03;;
54853;SDS011;40747;49.480;8.658;2022-10-31T08:01:52;4.88;;;3.10;;
54853;SDS011;40747;49.480;8.658;2022-10-31T08:04:17;6.75;;;3.10;;
54853;SDS011;40747;49.480;8.658;2022-10-31T08:06:42;6.03;;;3.20;;
54853;SDS011;40747;49.480;8.658;2022-10-31T08:09:08;6.35;;;2.92;;
54853;SDS011;40747;49.480;8.658;2022-10-31T08:11:34;7.95;;;3.10;;
54853;SDS011;40747;49.480;8.658;2022-10-31T08:13:59;7.70;;;3.17;;
54853;SDS011;40747;49.480;8.658;2022-10-31T08:16:24;8.30;;;3.35;;
54853;SDS011;40747;49.480;8.658;2022-10-31T08:18:50;6.53;;;3.00;;
54853;SDS011;40747;49.480;8.658;2022-10-31T08:21:15;5.88;;;3.80;;
54853;SDS011;40747;49.480;8.658;2022-10-31T08:23:40;10.07;;;3.78;;
54853;SDS011;40747;49.480;8.658;2022-10-31T08:26:06;9.35;;;4.18;;
54853;SDS011;40747;49.480;8.658;2022-10-31T08:28:31;5.70;;;3.40;;
54853;SDS011;40747;49.480;8.658;2022-10-31T08:30:57;6.53;;;3.55;;
54853;SDS011;40747;49.480;8.658;2022-10-31T08:33:23;10.43;;;3.70;;
54853;SDS011;40747;49.480;8.658;2022-10-31T08:35:49;10.85;;;4.05;;
54853;SDS011;40747;49.480;8.658;2022-10-31T08:38:14;10.88;;;4.53;;
54853;SDS011;40747;49.480;8.658;2022-10-31T08:40:40;9.68;;;4.38;;
54853;SDS011;40747;49.480;8.658;2022-10-31T08:43:06;8.82;;;4.47;;
54853;SDS011;40747;49.480;8.658;2022-10-31T08:45:36;9.50;;;3.85;;
54853;SDS011;40747;49.480;8.658;2022-10-31T08:48:03;8.48;;;4.30;;
54853;SDS011;40747;49.480;8.658;2022-10-31T08:50:31;13.95;;;4.68;;
54853;SDS011;40747;49.480;8.658;2022-10-31T08:53:01;9.43;;;4.45;;
54853;SDS011;40747;49.480;8.658;2022-10-31T08:55:27;11.52;;;3.28;;
54853;SDS011;40747;49.480;8.658;2022-10-31T08:57:55;7.38;;;4.18;;
54853;SDS011;40747;49.480;8.658;2022-10-31T09:00:24;9.23;;;4.18;;
54853;SDS011;40747;49.480;8.658;2022-10-31T09:02:56;8.45;;;3.67;;
54853;SDS011;40747;49.480;8.658;2022-10-31T09:05:23;8.27;;;4.43;;
54853;SDS011;40747;49.480;8.658;2022-10-31T09:07:48;10.20;;;3.92;;
54853;SDS011;40747;49.480;8.658;2022-10-31T09:10:14;11.40;;;4.05;;
54853;SDS011;40747;49.480;8.658;2022-10-31T09:12:39;10.27;;;3.95;;
54853;SDS011;40747;49.480;8.658;2022-10-31T09:15:06;9.70;;;4.43;;
54853;SDS011;40747;49.480;8.658;2022-10-31T09:17:32;7.05;;;4.30;;
54853;SDS011;40747;49.480;8.658;2022-10-31T09:19:57;8.02;;;4.13;;
54853;SDS011;40747;49.480;8.658;2022-10-31T09:22:22;7.32;;;4.28;;
54853;SDS011;40747;49.480;8.658;2022-10-31T09:24:47;9.10;;;5.18;;
54853;SDS011;40747;49.480;8.658;2022-10-31T09:27:13;10.77;;;4.57;;
54853;SDS011;40747;49.480;8.658;2022-10-31T09:29:38;8.00;;;4.93;;
54853;SDS011;40747;49.480;8.658;2022-10-31T09:32:03;15.05;;;4.95;;
54853;SDS011;40747;49.480;8.658;2022-10-31T09:34:29;11.45;;;4.88;;
54853;SDS011;40747;49.480;8.658;2022-10-31T09:36:54;14.90;;;5.68;;
54853;SDS011;40747;49.480;8.658;2022-10-31T09:39:19;8.07;;;4.45;;
54853;SDS011;40747;49.480;8.658;2022-10-31T09:50:18;8.75;;;4.70;;
54853;SDS011;40747;49.480;8.658;2022-10-31T09:52:51;8.25;;;4.45;;
54853;SDS011;40747;49.480;8.658;2022-10-31T09:55:27;10.50;;;3.90;;
54853;SDS011;40747;49.480;8.658;2022-10-31T09:58:00;6.60;;;3.80;;
54853;SDS011;40747;49.480;8.658;2022-10-31T10:00:26;8.07;;;4.53;;
54853;SDS011;40747;49.480;8.658;2022-10-31T10:03:04;11.25;;;4.18;;
54853;SDS011;40747;49.480;8.658;2022-10-31T10:06:21;9.80;;;4.70;;
54853;SDS011;40747;49.480;8.658;2022-10-31T10:08:34;11.63;;;4.18;;
54853;SDS011;40747;49.480;8.658;2022-10-31T10:13:51;10.18;;;4.07;;
54853;SDS011;40747;49.480;8.658;2022-10-31T10:16:37;10.35;;;4.75;;
54853;SDS011;40747;49.480;8.658;2022-10-31T10:24:32;8.90;;;4.03;;
54853;SDS011;40747;49.480;8.658;2022-10-31T10:27:19;6.97;;;3.70;;
54853;SDS011;40747;49.480;8.658;2022-10-31T10:30:02;8.95;;;4.05;;
54853;SDS011;40747;49.480;8.658;2022-10-31T10:32:34;4.20;;;3.47;;
54853;SDS011;40747;49.480;8.658;2022-10-31T10:35:22;7.32;;;4.15;;
54853;SDS011;40747;49.480;8.658;2022-10-31T10:37:55;7.03;;;3.45;;
54853;SDS011;40747;49.480;8.658;2022-10-31T10:40:25;9.98;;;3.88;;
54853;SDS011;40747;49.480;8.658;2022-10-31T10:45:49;9.88;;;3.85;;
54853;SDS011;40747;49.480;8.658;2022-10-31T10:48:48;6.78;;;3.30;;
54853;SDS011;40747;49.480;8.658;2022-10-31T10:51:50;13.15;;;4.10;;
54853;SDS011;40747;49.480;8.658;2022-10-31T10:54:33;7.13;;;4.25;;
54853;SDS011;40747;49.480;8.658;2022-10-31T10:59:55;9.50;;;4.80;;
54853;SDS011;40747;49.480;8.658;2022-10-31T11:02:25;11.95;;;5.07;;
54853;SDS011;40747;49.480;8.658;2022-10-31T11:04:53;8.15;;;4.63;;
54853;SDS011;40747;49.480;8.658;2022-10-31T11:07:20;12.35;;;5.10;;
54853;SDS011;40747;49.480;8.658;2022-10-31T11:09:46;12.02;;;4.88;;
54853;SDS011;40747;49.480;8.658;2022-10-31T11:12:17;7.13;;;4.72;;
54853;SDS011;40747;49.480;8.658;2022-10-31T11:14:50;17.77;;;4.47;;
54853;SDS011;40747;49.480;8.658;2022-10-31T11:17:26;6.93;;;4.32;;
54853;SDS011;40747;49.480;8.658;2022-10-31T11:22:29;8.85;;;4.72;;
54853;SDS011;40747;49.480;8.658;2022-10-31T11:24:55;15.32;;;5.07;;
54853;SDS011;40747;49.480;8.658;2022-10-31T11:27:22;10.93;;;5.40;;
54853;SDS011;40747;49.480;8.658;2022-10-31T11:29:49;8.63;;;4.72;;
54853;SDS011;40747;49.480;8.658;2022-10-31T11:32:17;8.20;;;4.95;;
54853;SDS011;40747;49.480;8.658;2022-10-31T11:34:46;11.00;;;5.40;;
54853;SDS011;40747;49.480;8.658;2022-10-31T11:37:24;14.43;;;5.15;;
54853;SDS011;40747;49.480;8.658;2022-10-31T11:40:00;12.30;;;5.25;;
54853;SDS011;40747;49.480;8.658;2022-10-31T11:42:36;8.23;;;4.47;;
54853;SDS011;40747;49.480;8.658;2022-10-31T11:47:58;12.63;;;5.75;;
54853;SDS011;40747;49.480;8.658;2022-10-31T11:50:28;12.43;;;4.78;;
54853;SDS011;40747;49.480;8.658;2022-10-31T11:53:11;13.85;;;5.47;;
54853;SDS011;40747;49.480;8.658;2022-10-31T11:55:42;8.27;;;4.90;;
54853;SDS011;40747;49.480;8.658;2022-10-31T11:58:21;10.95;;;5.22;;
54853;SDS011;40747;49.480;8.658;2022-10-31T12:00:50;8.57;;;5.72;;
54853;SDS011;40747;49.480;8.658;2022-10-31T12:05:56;9.05;;;6.03;;
54853;SDS011;40747;49.480;8.658;2022-10-31T12:08:32;8.55;;;5.47;;
54853;SDS011;40747;49.480;8.658;2022-10-31T12:14:13;8.45;;;5.47;;
54853;SDS011;40747;49.480;8.658;2022-10-31T12:19:38;9.15;;;5.65;;
54853;SDS011;40747;49.480;8.658;2022-10-31T12:33:59;10.60;;;5.68;;
54853;SDS011;40747;49.480;8.658;2022-10-31T12:51:06;14.25;;;5.57;;
54853;SDS011;40747;49.480;8.658;2022-10-31T12:53:40;13.93;;;6.18;;
54853;SDS011;40747;49.480;8.658;2022-10-31T12:59:11;9.85;;;5.68;;
54853;SDS011;40747;49.480;8.658;2022-10-31T13:01:50;12.18;;;5.50;;
54853;SDS011;40747;49.480;8.658;2022-10-31T13:07:13;11.55;;;5.45;;
54853;SDS011;40747;49.480;8.658;2022-10-31T13:12:27;11.38;;;6.05;;
54853;SDS011;40747;49.480;8.658;2022-10-31T13:14:56;9.35;;;5.95;;
54853;SDS011;40747;49.480;8.658;2022-10-31T13:17:30;10.27;;;5.93;;
54853;SDS011;40747;49.480;8.658;2022-10-31T13:20:20;14.82;;;6.07;;
54853;SDS011;40747;49.480;8.658;2022-10-31T13:22:52;10.30;;;6.45;;
54853;SDS011;40747;49.480;8.658;2022-10-31T13:25:28;18.80;;;6.70;;
54853;SDS011;40747;49.480;8.658;2022-10-31T13:27:59;10.00;;;6.53;;
54853;SDS011;40747;49.480;8.658;2022-10-31T13:30:29;15.35;;;6.80;;
54853;SDS011;40747;49.480;8.658;2022-10-31T13:33:03;14.43;;;7.10;;
54853;SDS011;40747;49.480;8.658;2022-10-31T13:35:41;12.77;;;6.18;;
54853;SDS011;40747;49.480;8.658;2022-10-31T13:44:02;12.13;;;6.68;;
54853;SDS011;40747;49.480;8.658;2022-10-31T13:46:36;12.25;;;6.90;;
54853;SDS011;40747;49.480;8.658;2022-10-31T13:54:39;14.82;;;6.55;;
54853;SDS011;40747;49.480;8.658;2022-10-31T13:57:06;13.10;;;6.63;;
54853;SDS011;40747;49.480;8.658;2022-10-31T13:59:45;11.57;;;6.88;;
54853;SDS011;40747;49.480;8.658;2022-10-31T14:02:17;14.93;;;7.20;;
54853;SDS011;40747;49.480;8.658;2022-10-31T14:07:17;11.45;;;6.10;;
54853;SDS011;40747;49.480;8.658;2022-10-31T14:09:59;11.73;;;6.90;;
54853;SDS011;40747;49.480;8.658;2022-10-31T14:17:38;10.73;;;6.88;;
54853;SDS011;40747;49.480;8.658;2022-10-31T14:22:39;12.47;;;7.90;;
54853;SDS011;40747;49.480;8.658;2022-10-31T14:25:24;9.02;;;6.45;;
54853;SDS011;40747;49.480;8.658;2022-10-31T14:27:52;9.90;;;6.32;;
54853;SDS011;40747;49.480;8.658;2022-10-31T14:30:19;17.88;;;6.35;;
54853;SDS011;40747;49.480;8.658;2022-10-31T14:32:51;11.68;;;6.90;;
54853;SDS011;40747;49.480;8.658;2022-10-31T14:35:19;10.00;;;6.30;;
54853;SDS011;40747;49.480;8.658;2022-10-31T14:40:42;16.00;;;6.70;;
54853;SDS011;40747;49.480;8.658;2022-10-31T14:43:32;17.23;;;7.57;;
54853;SDS011;40747;49.480;8.658;2022-10-31T14:48:59;12.50;;;6.75;;
54853;SDS011;40747;49.480;8.658;2022-10-31T14:51:50;17.75;;;7.78;;
54853;SDS011;40747;49.480;8.658;2022-10-31T14:54:20;19.10;;;8.27;;
54853;SDS011;40747;49.480;8.658;2022-10-31T14:56:53;16.48;;;7.13;;
54853;SDS011;40747;49.480;8.658;2022-10-31T14:59:23;12.15;;;7.22;;
54853;SDS011;40747;49.480;8.658;2022-10-31T15:04:38;11.65;;;7.72;;
54853;SDS011;40747;49.480;8.658;2022-10-31T15:07:22;13.55;;;6.68;;
54853;SDS011;40747;49.480;8.658;2022-10-31T15:09:56;15.90;;;7.10;;
54853;SDS011;40747;49.480;8.658;2022-10-31T15:14:56;23.40;;;8.00;;
54853;SDS011;40747;49.480;8.658;2022-10-31T15:17:23;14.20;;;8.00;;
54853;SDS011;40747;49.480;8.658;2022-10-31T15:19:50;16.38;;;6.32;;
54853;SDS011;40747;49.480;8.658;2022-10-31T15:22:18;12.10;;;6.38;;
54853;SDS011;40747;49.480;8.658;2022-10-31T15:24:47;10.80;;;6.25;;
54853;SDS011;40747;49.480;8.658;2022-10-31T15:27:14;11.35;;;6.43;;
54853;SDS011;40747;49.480;8.658;2022-10-31T15:29:55;10.52;;;6.15;;
54853;SDS011;40747;49.480;8.658;2022-10-31T15:32:25;16.80;;;7.43;;
54853;SDS011;40747;49.480;8.658;2022-10-31T15:34:52;9.52;;;6.65;;
54853;SDS011;40747;49.480;8.658;2022-10-31T15:37:20;11.48;;;7.20;;
54853;SDS011;40747;49.480;8.658;2022-10-31T15:39:47;13.07;;;6.93;;
54853;SDS011;40747;49.480;8.658;2022-10-31T15:42:20;14.48;;;8.38;;
54853;SDS011;40747;49.480;8.658;2022-10-31T15:44:50;12.95;;;7.47;;
54853;SDS011;40747;49.480;8.658;2022-10-31T15:47:25;12.70;;;7.32;;
54853;SDS011;40747;49.480;8.658;2022-10-31T15:49:55;18.50;;;6.97;;
54853;SDS011;40747;49.480;8.658;2022-10-31T15:54:48;11.70;;;6.30;;
54853;SDS011;40747;49.480;8.658;2022-10-31T15:57:16;14.05;;;6.45;;
54853;SDS011;40747;49.480;8.658;2022-10-31T15:59:44;15.45;;;7.40;;
54853;SDS011;40747;49.480;8.658;2022-10-31T16:02:12;12.68;;;7.07;;
54853;SDS011;40747;49.480;8.658;2022-10-31T16:04:47;12.95;;;6.95;;
54853;SDS011;40747;49.480;8.658;2022-10-31T16:07:19;12.77;;;6.63;;
54853;SDS011;40747;49.480;8.658;2022-10-31T16:10:02;15.00;;;6.22;;
54853;SDS011;40747;49.480;8.658;2022-10-31T16:12:46;12.70;;;5.90;;
54853;SDS011;40747;49.480;8.658;2022-10-31T16:15:15;9.55;;;6.38;;
54853;SDS011;40747;49.480;8.658;2022-10-31T16:17:46;11.20;;;5.90;;
54853;SDS011;40747;49.480;8.658;2022-10-31T16:20:22;11.85;;;5.97;;
54853;SDS011;40747;49.480;8.658;2022-10-31T16:22:53;12.90;;;6.90;;
54853;SDS011;40747;49.480;8.658;2022-10-31T16:25:24;13.07;;;7.60;;
54853;SDS011;40747;49.480;8.658;2022-10-31T16:27:54;7.75;;;4.60;;
54853;SDS011;40747;49.480;8.658;2022-10-31T16:30:28;7.20;;;4.40;;
54853;SDS011;40747;49.480;8.658;2022-10-31T16:32:55;7.47;;;4.25;;
54853;SDS011;40747;49.480;8.658;2022-10-31T16:35:27;8.45;;;3.78;;
54853;SDS011;40747;49.480;8.658;2022-10-31T16:37:57;6.95;;;3.75;;
54853;SDS011;40747;49.480;8.658;2022-10-31T16:40:23;12.27;;;4.15;;
54853;SDS011;40747;49.480;8.658;2022-10-31T16:42:49;10.57;;;3.22;;
54853;SDS011;40747;49.480;8.658;2022-10-31T16:45:17;7.38;;;3.25;;
54853;SDS011;40747;49.480;8.658;2022-10-31T16:47:44;8.95;;;3.60;;
54853;SDS011;40747;49.480;8.658;2022-10-31T16:50:15;12.68;;;3.80;;
54853;SDS011;40747;49.480;8.658;2022-10-31T16:52:46;5.70;;;3.70;;
54853;SDS011;40747;49.480;8.658;2022-10-31T16:55:13;8.48;;;4.03;;
54853;SDS011;40747;49.480;8.658;2022-10-31T16:57:45;14.10;;;4.38;;
54853;SDS011;40747;49.480;8.658;2022-10-31T17:00:18;12.20;;;5.90;;
54853;SDS011;40747;49.480;8.658;2022-10-31T17:02:46;10.48;;;4.80;;
54853;SDS011;40747;49.480;8.658;2022-10-31T17:05:14;10.52;;;4.88;;
54853;SDS011;40747;49.480;8.658;2022-10-31T17:07:42;8.25;;;4.70;;
54853;SDS011;40747;49.480;8.658;2022-10-31T17:10:09;10.05;;;5.22;;
54853;SDS011;40747;49.480;8.658;2022-10-31T17:12:36;12.85;;;5.97;;